Terminal Aerodrome Forecast
Issued by NWS

Home | Current Version | Previous Version | Text Only | Print | Product List | Glossary On
Versions: 1 2 3 4 5 6 7 8 9 10 11 12 13 14 15 16 17 18 19 20 21
000
FTUS43 KDVN 281800 AAA
TAFBRL
TAF AMD
KBRL 281842Z 2819/2918 10006KT P6SM SCT050 BKN100
      TEMPO 2820/2823 VRB10G30KT 1SM +TSRA BR OVC020CB
     FM290400 14006KT 4SM BR BKN120
     FM291500 14008KT P6SM SCT025 BKN100=

USA.gov is the U.S. government's official web portal to all federal, state and local government web resources and services.